Terminal Aerodrome Forecast
Issued by NWS Tuscon, AZ

Home | Current Version | Previous Version | Text Only | Print | Product List | Glossary On
Versions: 1 2 3 4 5 6 7 8 9 10 11 12 13 14 15 16
777
FTUS45 KTWC 221120
TAFDUG
TAF
KDUG 221120Z 2212/2312 VRB04KT P6SM BKN080
     FM222000 22006KT P6SM BKN080
     FM230100 17006KT P6SM SCT080 SCT250=

USA.gov is the U.S. government's official web portal to all federal, state and local government web resources and services.